sensor_id;sensor_type;location;lat;lon;timestamp;temperature;humidity
1453;DHT22;720;47.738;7.998;2023-04-03T00:01:03;7.40;99.90
1453;DHT22;720;47.738;7.998;2023-04-03T00:03:29;7.40;99.90
1453;DHT22;720;47.738;7.998;2023-04-03T00:05:55;7.20;99.90
1453;DHT22;720;47.738;7.998;2023-04-03T00:08:21;7.20;99.90
1453;DHT22;720;47.738;7.998;2023-04-03T00:10:47;7.10;99.90
1453;DHT22;720;47.738;7.998;2023-04-03T00:13:13;7.20;99.90
1453;DHT22;720;47.738;7.998;2023-04-03T00:15:39;7.30;99.90
1453;DHT22;720;47.738;7.998;2023-04-03T00:18:05;7.20;99.90
1453;DHT22;720;47.738;7.998;2023-04-03T00:20:32;7.60;99.90
1453;DHT22;720;47.738;7.998;2023-04-03T00:22:58;7.40;99.90
1453;DHT22;720;47.738;7.998;2023-04-03T00:25:24;7.40;99.90
1453;DHT22;720;47.738;7.998;2023-04-03T00:27:50;7.40;99.90
1453;DHT22;720;47.738;7.998;2023-04-03T00:30:18;7.40;99.90
1453;DHT22;720;47.738;7.998;2023-04-03T00:32:44;7.50;99.90
1453;DHT22;720;47.738;7.998;2023-04-03T00:35:09;7.50;99.90
1453;DHT22;720;47.738;7.998;2023-04-03T00:37:35;7.60;99.90
1453;DHT22;720;47.738;7.998;2023-04-03T00:40:02;7.50;99.90
1453;DHT22;720;47.738;7.998;2023-04-03T00:42:28;7.50;99.90
1453;DHT22;720;47.738;7.998;2023-04-03T00:47:23;7.50;99.90
1453;DHT22;720;47.738;7.998;2023-04-03T00:49:50;7.50;99.90
1453;DHT22;720;47.738;7.998;2023-04-03T00:52:21;7.50;99.90
1453;DHT22;720;47.738;7.998;2023-04-03T00:54:50;7.60;99.90
1453;DHT22;720;47.738;7.998;2023-04-03T00:57:17;7.50;99.90
1453;DHT22;720;47.738;7.998;2023-04-03T00:59:46;7.40;99.90
1453;DHT22;720;47.738;7.998;2023-04-03T01:02:14;7.30;99.90
1453;DHT22;720;47.738;7.998;2023-04-03T01:04:42;7.20;99.90
1453;DHT22;720;47.738;7.998;2023-04-03T01:07:29;7.20;99.90
1453;DHT22;720;47.738;7.998;2023-04-03T01:10:00;7.20;99.90
1453;DHT22;720;47.738;7.998;2023-04-03T01:12:31;7.10;99.90
1453;DHT22;720;47.738;7.998;2023-04-03T01:15:00;7.00;99.90
1453;DHT22;720;47.738;7.998;2023-04-03T01:17:32;6.90;99.90
1453;DHT22;720;47.738;7.998;2023-04-03T01:20:07;6.90;99.90
1453;DHT22;720;47.738;7.998;2023-04-03T01:25:26;6.00;99.90
1453;DHT22;720;47.738;7.998;2023-04-03T01:27:53;5.90;99.90
1453;DHT22;720;47.738;7.998;2023-04-03T01:30:21;5.70;99.90
1453;DHT22;720;47.738;7.998;2023-04-03T01:32:49;5.90;99.90
1453;DHT22;720;47.738;7.998;2023-04-03T01:35:14;6.00;99.90
1453;DHT22;720;47.738;7.998;2023-04-03T01:37:40;6.10;99.90
1453;DHT22;720;47.738;7.998;2023-04-03T01:40:07;6.20;99.90
1453;DHT22;720;47.738;7.998;2023-04-03T01:42:33;6.10;99.90
1453;DHT22;720;47.738;7.998;2023-04-03T01:44:59;6.20;99.90
1453;DHT22;720;47.738;7.998;2023-04-03T01:47:25;6.30;99.90
1453;DHT22;720;47.738;7.998;2023-04-03T01:49:50;6.30;99.90
1453;DHT22;720;47.738;7.998;2023-04-03T01:52:16;6.50;99.90
1453;DHT22;720;47.738;7.998;2023-04-03T01:54:42;6.40;99.90
1453;DHT22;720;47.738;7.998;2023-04-03T01:57:07;6.40;99.90
1453;DHT22;720;47.738;7.998;2023-04-03T01:59:33;6.50;99.90
1453;DHT22;720;47.738;7.998;2023-04-03T02:01:58;6.50;99.90
1453;DHT22;720;47.738;7.998;2023-04-03T02:04:24;6.40;99.90
1453;DHT22;720;47.738;7.998;2023-04-03T02:06:50;6.40;99.90
1453;DHT22;720;47.738;7.998;2023-04-03T02:09:15;6.50;99.90
1453;DHT22;720;47.738;7.998;2023-04-03T02:11:41;6.40;99.90
1453;DHT22;720;47.738;7.998;2023-04-03T02:14:07;6.30;99.90
1453;DHT22;720;47.738;7.998;2023-04-03T02:16:32;6.20;99.90
1453;DHT22;720;47.738;7.998;2023-04-03T02:18:58;5.90;99.90
1453;DHT22;720;47.738;7.998;2023-04-03T02:21:24;5.80;99.90
1453;DHT22;720;47.738;7.998;2023-04-03T02:23:50;5.90;99.90
1453;DHT22;720;47.738;7.998;2023-04-03T02:26:16;5.70;99.90
1453;DHT22;720;47.738;7.998;2023-04-03T02:28:42;5.60;99.90
1453;DHT22;720;47.738;7.998;2023-04-03T02:31:08;5.80;99.90
1453;DHT22;720;47.738;7.998;2023-04-03T02:33:35;5.60;99.90
1453;DHT22;720;47.738;7.998;2023-04-03T02:36:03;5.70;99.90
1453;DHT22;720;47.738;7.998;2023-04-03T02:38:29;5.50;99.90
1453;DHT22;720;47.738;7.998;2023-04-03T02:41:04;5.30;99.90
1453;DHT22;720;47.738;7.998;2023-04-03T02:43:30;5.20;99.90
1453;DHT22;720;47.738;7.998;2023-04-03T02:45:56;5.30;99.90
1453;DHT22;720;47.738;7.998;2023-04-03T02:48:22;5.50;99.90
1453;DHT22;720;47.738;7.998;2023-04-03T02:50:48;5.20;99.90
1453;DHT22;720;47.738;7.998;2023-04-03T02:53:14;5.40;99.90
1453;DHT22;720;47.738;7.998;2023-04-03T02:55:40;5.10;99.90
1453;DHT22;720;47.738;7.998;2023-04-03T02:58:06;5.50;99.90
1453;DHT22;720;47.738;7.998;2023-04-03T03:00:32;5.60;99.90
1453;DHT22;720;47.738;7.998;2023-04-03T03:02:57;5.40;99.90
1453;DHT22;720;47.738;7.998;2023-04-03T03:05:23;5.40;99.90
1453;DHT22;720;47.738;7.998;2023-04-03T03:07:49;5.50;99.90
1453;DHT22;720;47.738;7.998;2023-04-03T03:10:15;5.60;99.90
1453;DHT22;720;47.738;7.998;2023-04-03T03:12:41;5.50;99.90
1453;DHT22;720;47.738;7.998;2023-04-03T03:15:07;5.50;99.90
1453;DHT22;720;47.738;7.998;2023-04-03T03:17:33;5.40;99.90
1453;DHT22;720;47.738;7.998;2023-04-03T03:19:59;5.20;99.90
1453;DHT22;720;47.738;7.998;2023-04-03T03:22:26;4.70;99.90
1453;DHT22;720;47.738;7.998;2023-04-03T03:24:51;4.40;99.90
1453;DHT22;720;47.738;7.998;2023-04-03T03:27:17;4.80;99.90
1453;DHT22;720;47.738;7.998;2023-04-03T03:29:43;4.50;99.90
1453;DHT22;720;47.738;7.998;2023-04-03T03:32:08;4.40;99.90
1453;DHT22;720;47.738;7.998;2023-04-03T03:34:34;4.30;99.90
1453;DHT22;720;47.738;7.998;2023-04-03T03:36:59;4.20;99.90
1453;DHT22;720;47.738;7.998;2023-04-03T03:39:26;4.90;99.90
1453;DHT22;720;47.738;7.998;2023-04-03T03:41:52;4.70;99.90
1453;DHT22;720;47.738;7.998;2023-04-03T03:44:19;4.70;99.90
1453;DHT22;720;47.738;7.998;2023-04-03T03:46:45;4.40;99.90
1453;DHT22;720;47.738;7.998;2023-04-03T03:49:11;4.30;99.90
1453;DHT22;720;47.738;7.998;2023-04-03T03:51:37;4.60;99.90
1453;DHT22;720;47.738;7.998;2023-04-03T03:54:04;4.40;99.90
1453;DHT22;720;47.738;7.998;2023-04-03T03:56:30;4.50;99.90
1453;DHT22;720;47.738;7.998;2023-04-03T03:58:55;4.50;99.90
1453;DHT22;720;47.738;7.998;2023-04-03T04:01:23;4.70;99.90
1453;DHT22;720;47.738;7.998;2023-04-03T04:03:49;4.90;99.90
1453;DHT22;720;47.738;7.998;2023-04-03T04:06:14;5.10;99.90
1453;DHT22;720;47.738;7.998;2023-04-03T04:08:40;5.00;99.90
1453;DHT22;720;47.738;7.998;2023-04-03T04:11:07;4.90;99.90
1453;DHT22;720;47.738;7.998;2023-04-03T04:13:32;4.90;99.90
1453;DHT22;720;47.738;7.998;2023-04-03T04:15:58;5.00;99.90
1453;DHT22;720;47.738;7.998;2023-04-03T04:18:23;5.00;99.90
1453;DHT22;720;47.738;7.998;2023-04-03T04:20:49;5.00;99.90
1453;DHT22;720;47.738;7.998;2023-04-03T04:23:17;5.00;99.90
1453;DHT22;720;47.738;7.998;2023-04-03T04:25:47;5.00;99.90
1453;DHT22;720;47.738;7.998;2023-04-03T04:28:13;5.00;99.90
1453;DHT22;720;47.738;7.998;2023-04-03T04:30:38;5.10;99.90
1453;DHT22;720;47.738;7.998;2023-04-03T04:33:04;4.90;99.90
1453;DHT22;720;47.738;7.998;2023-04-03T04:35:31;5.00;99.90
1453;DHT22;720;47.738;7.998;2023-04-03T04:37:56;5.20;99.90
1453;DHT22;720;47.738;7.998;2023-04-03T04:40:22;4.90;99.90
1453;DHT22;720;47.738;7.998;2023-04-03T04:42:48;4.90;99.90
1453;DHT22;720;47.738;7.998;2023-04-03T04:45:13;5.10;99.90
1453;DHT22;720;47.738;7.998;2023-04-03T04:47:40;4.80;99.90
1453;DHT22;720;47.738;7.998;2023-04-03T04:50:07;4.80;99.90
1453;DHT22;720;47.738;7.998;2023-04-03T04:52:33;4.80;99.90
1453;DHT22;720;47.738;7.998;2023-04-03T04:54:58;4.90;99.90
1453;DHT22;720;47.738;7.998;2023-04-03T04:57:25;4.80;99.90
1453;DHT22;720;47.738;7.998;2023-04-03T04:59:51;4.70;99.90
1453;DHT22;720;47.738;7.998;2023-04-03T05:02:16;4.70;99.90
1453;DHT22;720;47.738;7.998;2023-04-03T05:04:42;4.50;99.90
1453;DHT22;720;47.738;7.998;2023-04-03T05:07:08;4.60;99.90
1453;DHT22;720;47.738;7.998;2023-04-03T05:09:33;4.60;99.90
1453;DHT22;720;47.738;7.998;2023-04-03T05:11:59;4.70;99.90
1453;DHT22;720;47.738;7.998;2023-04-03T05:14:25;4.70;99.90
1453;DHT22;720;47.738;7.998;2023-04-03T05:16:51;4.60;99.90
1453;DHT22;720;47.738;7.998;2023-04-03T05:19:22;4.70;99.90
1453;DHT22;720;47.738;7.998;2023-04-03T05:21:48;4.70;99.90
1453;DHT22;720;47.738;7.998;2023-04-03T05:24:14;4.90;99.90
1453;DHT22;720;47.738;7.998;2023-04-03T05:26:40;4.80;99.90
1453;DHT22;720;47.738;7.998;2023-04-03T05:29:06;4.70;99.90
1453;DHT22;720;47.738;7.998;2023-04-03T05:31:32;5.10;99.90
1453;DHT22;720;47.738;7.998;2023-04-03T05:33:58;4.70;99.90
1453;DHT22;720;47.738;7.998;2023-04-03T05:36:24;4.70;99.90
1453;DHT22;720;47.738;7.998;2023-04-03T05:38:51;4.80;99.90
1453;DHT22;720;47.738;7.998;2023-04-03T05:41:16;4.30;99.90
1453;DHT22;720;47.738;7.998;2023-04-03T05:43:42;4.20;99.90
1453;DHT22;720;47.738;7.998;2023-04-03T05:46:25;4.20;99.90
1453;DHT22;720;47.738;7.998;2023-04-03T05:48:51;4.10;99.90
1453;DHT22;720;47.738;7.998;2023-04-03T05:51:24;4.10;99.90
1453;DHT22;720;47.738;7.998;2023-04-03T05:53:57;4.00;99.90
1453;DHT22;720;47.738;7.998;2023-04-03T05:56:25;4.10;99.90
1453;DHT22;720;47.738;7.998;2023-04-03T05:58:50;4.10;99.90
1453;DHT22;720;47.738;7.998;2023-04-03T06:01:16;4.40;99.90
1453;DHT22;720;47.738;7.998;2023-04-03T06:03:42;4.70;99.90
1453;DHT22;720;47.738;7.998;2023-04-03T06:06:08;4.90;99.90
1453;DHT22;720;47.738;7.998;2023-04-03T06:08:37;5.00;99.90
1453;DHT22;720;47.738;7.998;2023-04-03T06:11:03;5.10;99.10
1453;DHT22;720;47.738;7.998;2023-04-03T06:13:29;5.30;98.80
1453;DHT22;720;47.738;7.998;2023-04-03T06:15:56;5.40;98.60
1453;DHT22;720;47.738;7.998;2023-04-03T06:18:22;5.60;98.50
1453;DHT22;720;47.738;7.998;2023-04-03T06:20:53;5.60;98.20
1453;DHT22;720;47.738;7.998;2023-04-03T06:23:18;5.70;98.00
1453;DHT22;720;47.738;7.998;2023-04-03T06:25:44;5.80;97.90
1453;DHT22;720;47.738;7.998;2023-04-03T06:28:10;5.80;97.80
1453;DHT22;720;47.738;7.998;2023-04-03T06:30:36;5.80;98.10
1453;DHT22;720;47.738;7.998;2023-04-03T06:33:02;5.90;98.30
1453;DHT22;720;47.738;7.998;2023-04-03T06:35:28;5.90;96.60
1453;DHT22;720;47.738;7.998;2023-04-03T06:37:56;5.90;96.10
1453;DHT22;720;47.738;7.998;2023-04-03T06:40:23;5.90;96.20
1453;DHT22;720;47.738;7.998;2023-04-03T06:42:50;5.80;96.70
1453;DHT22;720;47.738;7.998;2023-04-03T06:45:16;5.80;96.70
1453;DHT22;720;47.738;7.998;2023-04-03T06:47:41;5.80;97.10
1453;DHT22;720;47.738;7.998;2023-04-03T06:50:10;5.90;97.20
1453;DHT22;720;47.738;7.998;2023-04-03T06:52:37;5.70;96.10
1453;DHT22;720;47.738;7.998;2023-04-03T06:55:05;5.30;96.30
1453;DHT22;720;47.738;7.998;2023-04-03T06:57:31;5.10;96.30
1453;DHT22;720;47.738;7.998;2023-04-03T07:02:22;4.60;96.10
1453;DHT22;720;47.738;7.998;2023-04-03T07:04:48;4.30;96.40
1453;DHT22;720;47.738;7.998;2023-04-03T07:07:14;4.10;96.90
1453;DHT22;720;47.738;7.998;2023-04-03T07:09:40;3.90;97.40
1453;DHT22;720;47.738;7.998;2023-04-03T07:12:06;4.10;97.90
1453;DHT22;720;47.738;7.998;2023-04-03T07:14:31;4.20;97.90
1453;DHT22;720;47.738;7.998;2023-04-03T07:16:57;4.40;97.50
1453;DHT22;720;47.738;7.998;2023-04-03T07:19:23;4.30;99.90
1453;DHT22;720;47.738;7.998;2023-04-03T07:21:49;4.80;97.30
1453;DHT22;720;47.738;7.998;2023-04-03T07:24:15;4.80;97.40
1453;DHT22;720;47.738;7.998;2023-04-03T07:26:41;5.00;96.90
1453;DHT22;720;47.738;7.998;2023-04-03T07:29:07;5.10;96.70
1453;DHT22;720;47.738;7.998;2023-04-03T07:31:32;5.10;95.10
1453;DHT22;720;47.738;7.998;2023-04-03T07:33:59;5.30;94.40
1453;DHT22;720;47.738;7.998;2023-04-03T07:36:25;5.10;94.20
1453;DHT22;720;47.738;7.998;2023-04-03T07:38:50;4.90;93.90
1453;DHT22;720;47.738;7.998;2023-04-03T07:41:17;4.90;93.80
1453;DHT22;720;47.738;7.998;2023-04-03T07:43:44;5.00;93.60
1453;DHT22;720;47.738;7.998;2023-04-03T07:46:10;5.10;94.50
1453;DHT22;720;47.738;7.998;2023-04-03T07:48:36;5.10;94.10
1453;DHT22;720;47.738;7.998;2023-04-03T07:51:04;5.10;93.80
1453;DHT22;720;47.738;7.998;2023-04-03T07:53:31;5.00;93.20
1453;DHT22;720;47.738;7.998;2023-04-03T07:55:58;4.50;93.70
1453;DHT22;720;47.738;7.998;2023-04-03T07:58:25;4.70;93.80
1453;DHT22;720;47.738;7.998;2023-04-03T08:00:51;4.40;93.70
1453;DHT22;720;47.738;7.998;2023-04-03T08:03:17;4.10;94.10
1453;DHT22;720;47.738;7.998;2023-04-03T08:05:45;4.00;94.50
1453;DHT22;720;47.738;7.998;2023-04-03T08:08:12;4.10;94.80
1453;DHT22;720;47.738;7.998;2023-04-03T08:10:39;4.10;94.10
1453;DHT22;720;47.738;7.998;2023-04-03T08:13:05;4.10;93.80
1453;DHT22;720;47.738;7.998;2023-04-03T08:15:31;4.30;94.00
1453;DHT22;720;47.738;7.998;2023-04-03T08:17:57;4.40;94.10
1453;DHT22;720;47.738;7.998;2023-04-03T08:20:23;4.40;93.20
1453;DHT22;720;47.738;7.998;2023-04-03T08:22:49;4.50;93.50
1453;DHT22;720;47.738;7.998;2023-04-03T08:25:14;4.50;93.00
1453;DHT22;720;47.738;7.998;2023-04-03T08:27:40;4.60;93.30
1453;DHT22;720;47.738;7.998;2023-04-03T08:30:07;4.60;93.00
1453;DHT22;720;47.738;7.998;2023-04-03T08:32:34;4.50;93.20
1453;DHT22;720;47.738;7.998;2023-04-03T08:35:01;4.60;93.30
1453;DHT22;720;47.738;7.998;2023-04-03T08:37:27;4.70;93.40
1453;DHT22;720;47.738;7.998;2023-04-03T08:39:53;5.00;93.40
1453;DHT22;720;47.738;7.998;2023-04-03T08:45:27;4.70;91.80
1453;DHT22;720;47.738;7.998;2023-04-03T08:48:05;4.60;91.90
1453;DHT22;720;47.738;7.998;2023-04-03T08:50:43;4.70;91.70
1453;DHT22;720;47.738;7.998;2023-04-03T08:53:21;4.70;92.00
1453;DHT22;720;47.738;7.998;2023-04-03T08:55:50;4.70;91.60
1453;DHT22;720;47.738;7.998;2023-04-03T08:58:25;4.10;91.40
1453;DHT22;720;47.738;7.998;2023-04-03T09:01:35;4.10;92.30
1453;DHT22;720;47.738;7.998;2023-04-03T09:04:09;4.50;92.70
1453;DHT22;720;47.738;7.998;2023-04-03T09:06:36;4.60;90.30
1453;DHT22;720;47.738;7.998;2023-04-03T09:09:30;4.40;90.90
1453;DHT22;720;47.738;7.998;2023-04-03T09:22:51;4.90;98.50
1453;DHT22;720;47.738;7.998;2023-04-03T09:25:33;4.60;90.30
1453;DHT22;720;47.738;7.998;2023-04-03T09:28:01;5.20;88.20
1453;DHT22;720;47.738;7.998;2023-04-03T09:30:29;5.20;84.90
1453;DHT22;720;47.738;7.998;2023-04-03T09:32:56;5.40;85.30
1453;DHT22;720;47.738;7.998;2023-04-03T09:35:32;6.00;87.00
1453;DHT22;720;47.738;7.998;2023-04-03T09:38:19;6.20;85.40
1453;DHT22;720;47.738;7.998;2023-04-03T09:43:32;5.80;84.10
1453;DHT22;720;47.738;7.998;2023-04-03T09:48:51;5.20;87.90
1453;DHT22;720;47.738;7.998;2023-04-03T09:51:17;4.70;90.00
1453;DHT22;720;47.738;7.998;2023-04-03T09:53:44;5.30;90.20
1453;DHT22;720;47.738;7.998;2023-04-03T09:58:40;4.50;90.30
1453;DHT22;720;47.738;7.998;2023-04-03T10:01:22;4.70;90.00
1453;DHT22;720;47.738;7.998;2023-04-03T10:04:04;5.60;88.50
1453;DHT22;720;47.738;7.998;2023-04-03T10:06:33;4.90;86.80
1453;DHT22;720;47.738;7.998;2023-04-03T10:09:04;5.30;90.00
1453;DHT22;720;47.738;7.998;2023-04-03T10:11:30;6.10;87.70
1453;DHT22;720;47.738;7.998;2023-04-03T10:13:58;6.40;86.30
1453;DHT22;720;47.738;7.998;2023-04-03T10:16:46;7.00;83.00
1453;DHT22;720;47.738;7.998;2023-04-03T10:27:58;7.40;77.30
1453;DHT22;720;47.738;7.998;2023-04-03T10:36:13;6.90;80.30
1453;DHT22;720;47.738;7.998;2023-04-03T10:39:01;7.00;83.00
1453;DHT22;720;47.738;7.998;2023-04-03T10:41:43;8.20;80.80
1453;DHT22;720;47.738;7.998;2023-04-03T10:46:52;7.70;74.30
1453;DHT22;720;47.738;7.998;2023-04-03T10:49:39;7.20;79.30
1453;DHT22;720;47.738;7.998;2023-04-03T10:52:27;7.30;75.00
1453;DHT22;720;47.738;7.998;2023-04-03T10:57:33;6.80;80.60
1453;DHT22;720;47.738;7.998;2023-04-03T11:00:14;6.80;77.70
1453;DHT22;720;47.738;7.998;2023-04-03T11:02:54;6.60;79.70
1453;DHT22;720;47.738;7.998;2023-04-03T11:05:44;6.40;77.40
1453;DHT22;720;47.738;7.998;2023-04-03T11:08:31;6.20;79.30
1453;DHT22;720;47.738;7.998;2023-04-03T11:11:03;6.00;80.30
1453;DHT22;720;47.738;7.998;2023-04-03T11:13:51;6.00;83.10
1453;DHT22;720;47.738;7.998;2023-04-03T11:16:23;6.00;83.20
1453;DHT22;720;47.738;7.998;2023-04-03T11:19:52;5.60;83.50
1453;DHT22;720;47.738;7.998;2023-04-03T11:22:10;5.30;86.20
1453;DHT22;720;47.738;7.998;2023-04-03T11:24:42;5.30;88.20
1453;DHT22;720;47.738;7.998;2023-04-03T11:27:16;5.80;83.60
1453;DHT22;720;47.738;7.998;2023-04-03T11:29:46;6.10;83.70
1453;DHT22;720;47.738;7.998;2023-04-03T11:32:46;6.20;84.20
1453;DHT22;720;47.738;7.998;2023-04-03T11:35:17;5.90;82.00
1453;DHT22;720;47.738;7.998;2023-04-03T11:37:52;5.60;80.80
1453;DHT22;720;47.738;7.998;2023-04-03T11:40:25;5.70;82.70
1453;DHT22;720;47.738;7.998;2023-04-03T11:46:03;6.50;85.00
1453;DHT22;720;47.738;7.998;2023-04-03T11:50:58;6.20;80.90
1453;DHT22;720;47.738;7.998;2023-04-03T11:53:31;5.60;81.20
1453;DHT22;720;47.738;7.998;2023-04-03T12:01:48;5.90;84.00
1453;DHT22;720;47.738;7.998;2023-04-03T12:04:16;6.20;81.60
1453;DHT22;720;47.738;7.998;2023-04-03T12:06:49;6.50;80.80
1453;DHT22;720;47.738;7.998;2023-04-03T12:12:28;5.80;81.90
1453;DHT22;720;47.738;7.998;2023-04-03T12:14:54;6.20;79.80
1453;DHT22;720;47.738;7.998;2023-04-03T12:17:26;6.50;79.40
1453;DHT22;720;47.738;7.998;2023-04-03T12:19:52;6.50;78.70
1453;DHT22;720;47.738;7.998;2023-04-03T12:22:20;6.60;76.90
1453;DHT22;720;47.738;7.998;2023-04-03T12:24:51;6.30;80.60
1453;DHT22;720;47.738;7.998;2023-04-03T12:27:34;6.50;77.60
1453;DHT22;720;47.738;7.998;2023-04-03T12:30:05;6.40;80.20
1453;DHT22;720;47.738;7.998;2023-04-03T12:32:57;6.40;80.40
1453;DHT22;720;47.738;7.998;2023-04-03T12:35:40;6.20;79.60
1453;DHT22;720;47.738;7.998;2023-04-03T12:46:41;5.30;85.80
1453;DHT22;720;47.738;7.998;2023-04-03T12:51:55;5.50;83.80
1453;DHT22;720;47.738;7.998;2023-04-03T12:54:30;5.50;82.20
1453;DHT22;720;47.738;7.998;2023-04-03T12:57:18;5.50;83.50
1453;DHT22;720;47.738;7.998;2023-04-03T12:59:44;5.70;83.20
1453;DHT22;720;47.738;7.998;2023-04-03T13:02:28;6.20;84.70
1453;DHT22;720;47.738;7.998;2023-04-03T13:04:57;6.60;82.90
1453;DHT22;720;47.738;7.998;2023-04-03T13:07:37;7.00;81.10
1453;DHT22;720;47.738;7.998;2023-04-03T13:12:46;7.50;80.10
1453;DHT22;720;47.738;7.998;2023-04-03T13:15:22;7.10;77.00
1453;DHT22;720;47.738;7.998;2023-04-03T13:17:48;6.80;78.20
1453;DHT22;720;47.738;7.998;2023-04-03T13:20:35;6.40;79.30
1453;DHT22;720;47.738;7.998;2023-04-03T13:23:10;6.40;80.00
1453;DHT22;720;47.738;7.998;2023-04-03T13:25:41;6.50;79.00
1453;DHT22;720;47.738;7.998;2023-04-03T13:28:13;6.00;78.40
1453;DHT22;720;47.738;7.998;2023-04-03T13:30:41;6.00;81.70
1453;DHT22;720;47.738;7.998;2023-04-03T13:33:22;6.20;82.10
1453;DHT22;720;47.738;7.998;2023-04-03T13:35:56;6.40;78.90
1453;DHT22;720;47.738;7.998;2023-04-03T13:38:25;6.40;80.70
1453;DHT22;720;47.738;7.998;2023-04-03T13:41:04;6.70;82.10
1453;DHT22;720;47.738;7.998;2023-04-03T13:43:35;6.70;77.80
1453;DHT22;720;47.738;7.998;2023-04-03T13:46:03;6.80;76.00
1453;DHT22;720;47.738;7.998;2023-04-03T13:48:42;7.00;77.30
1453;DHT22;720;47.738;7.998;2023-04-03T14:01:25;6.70;74.30
1453;DHT22;720;47.738;7.998;2023-04-03T14:04:00;6.50;78.60
1453;DHT22;720;47.738;7.998;2023-04-03T14:06:26;6.70;81.10
1453;DHT22;720;47.738;7.998;2023-04-03T14:08:52;6.90;80.10
1453;DHT22;720;47.738;7.998;2023-04-03T14:11:26;6.80;76.40
1453;DHT22;720;47.738;7.998;2023-04-03T14:13:53;6.70;75.60
1453;DHT22;720;47.738;7.998;2023-04-03T14:16:24;6.70;76.70
1453;DHT22;720;47.738;7.998;2023-04-03T14:18:52;6.70;78.50
1453;DHT22;720;47.738;7.998;2023-04-03T14:21:19;6.70;77.50
1453;DHT22;720;47.738;7.998;2023-04-03T14:23:46;6.80;78.90
1453;DHT22;720;47.738;7.998;2023-04-03T14:26:15;6.80;75.90
1453;DHT22;720;47.738;7.998;2023-04-03T14:28:44;6.80;75.10
1453;DHT22;720;47.738;7.998;2023-04-03T14:31:12;6.50;78.60
1453;DHT22;720;47.738;7.998;2023-04-03T14:33:38;6.30;76.50
1453;DHT22;720;47.738;7.998;2023-04-03T14:36:15;5.90;75.30
1453;DHT22;720;47.738;7.998;2023-04-03T14:38:42;6.00;74.90
1453;DHT22;720;47.738;7.998;2023-04-03T14:41:12;6.10;76.20
1453;DHT22;720;47.738;7.998;2023-04-03T14:43:37;6.10;77.90
1453;DHT22;720;47.738;7.998;2023-04-03T14:46:04;6.20;78.00
1453;DHT22;720;47.738;7.998;2023-04-03T14:48:30;6.40;77.60
1453;DHT22;720;47.738;7.998;2023-04-03T14:50:56;6.50;76.90
1453;DHT22;720;47.738;7.998;2023-04-03T14:53:22;6.70;77.10
1453;DHT22;720;47.738;7.998;2023-04-03T14:55:50;6.70;74.70
1453;DHT22;720;47.738;7.998;2023-04-03T14:58:19;6.80;74.80
1453;DHT22;720;47.738;7.998;2023-04-03T15:00:45;6.90;74.40
1453;DHT22;720;47.738;7.998;2023-04-03T15:03:16;6.80;75.80
1453;DHT22;720;47.738;7.998;2023-04-03T15:05:44;6.90;77.80
1453;DHT22;720;47.738;7.998;2023-04-03T15:08:19;6.80;77.10
1453;DHT22;720;47.738;7.998;2023-04-03T15:10:45;6.70;77.90
1453;DHT22;720;47.738;7.998;2023-04-03T15:13:12;6.80;79.90
1453;DHT22;720;47.738;7.998;2023-04-03T15:15:39;6.80;79.60
1453;DHT22;720;47.738;7.998;2023-04-03T15:18:04;6.80;79.10
1453;DHT22;720;47.738;7.998;2023-04-03T15:20:30;6.70;77.20
1453;DHT22;720;47.738;7.998;2023-04-03T15:22:59;6.20;77.90
1453;DHT22;720;47.738;7.998;2023-04-03T15:25:28;6.10;79.20
1453;DHT22;720;47.738;7.998;2023-04-03T15:27:55;6.10;81.90
1453;DHT22;720;47.738;7.998;2023-04-03T15:30:21;6.10;82.70
1453;DHT22;720;47.738;7.998;2023-04-03T15:32:47;6.00;81.30
1453;DHT22;720;47.738;7.998;2023-04-03T15:35:14;6.00;81.40
1453;DHT22;720;47.738;7.998;2023-04-03T15:37:39;5.90;82.50
1453;DHT22;720;47.738;7.998;2023-04-03T15:40:06;5.50;81.10
1453;DHT22;720;47.738;7.998;2023-04-03T15:42:32;5.10;83.50
1453;DHT22;720;47.738;7.998;2023-04-03T15:44:58;5.00;85.00
1453;DHT22;720;47.738;7.998;2023-04-03T15:47:25;5.60;86.10
1453;DHT22;720;47.738;7.998;2023-04-03T15:49:50;5.30;86.70
1453;DHT22;720;47.738;7.998;2023-04-03T15:52:16;5.40;87.20
1453;DHT22;720;47.738;7.998;2023-04-03T15:54:42;5.60;87.70
1453;DHT22;720;47.738;7.998;2023-04-03T15:57:07;5.60;84.70
1453;DHT22;720;47.738;7.998;2023-04-03T15:59:33;6.00;93.30
1453;DHT22;720;47.738;7.998;2023-04-03T16:01:59;5.70;84.60
1453;DHT22;720;47.738;7.998;2023-04-03T16:04:27;5.80;84.40
1453;DHT22;720;47.738;7.998;2023-04-03T16:06:53;5.80;82.80
1453;DHT22;720;47.738;7.998;2023-04-03T16:09:19;5.80;81.30
1453;DHT22;720;47.738;7.998;2023-04-03T16:11:44;5.70;81.80
1453;DHT22;720;47.738;7.998;2023-04-03T16:14:10;5.60;81.70
1453;DHT22;720;47.738;7.998;2023-04-03T16:16:36;5.40;81.90
1453;DHT22;720;47.738;7.998;2023-04-03T16:19:03;5.30;81.40
1453;DHT22;720;47.738;7.998;2023-04-03T16:21:29;5.10;81.90
1453;DHT22;720;47.738;7.998;2023-04-03T16:23:57;5.00;82.00
1453;DHT22;720;47.738;7.998;2023-04-03T16:26:23;5.10;82.40
1453;DHT22;720;47.738;7.998;2023-04-03T16:28:49;5.00;83.10
1453;DHT22;720;47.738;7.998;2023-04-03T16:31:15;5.10;82.60
1453;DHT22;720;47.738;7.998;2023-04-03T16:33:40;5.10;80.80
1453;DHT22;720;47.738;7.998;2023-04-03T16:36:06;4.90;80.40
1453;DHT22;720;47.738;7.998;2023-04-03T16:38:32;4.90;82.50
1453;DHT22;720;47.738;7.998;2023-04-03T16:40:58;5.00;82.30
1453;DHT22;720;47.738;7.998;2023-04-03T16:43:27;5.10;83.60
1453;DHT22;720;47.738;7.998;2023-04-03T16:45:53;4.80;82.60
1453;DHT22;720;47.738;7.998;2023-04-03T16:48:19;4.50;84.30
1453;DHT22;720;47.738;7.998;2023-04-03T16:50:48;5.00;83.10
1453;DHT22;720;47.738;7.998;2023-04-03T16:53:17;4.60;82.30
1453;DHT22;720;47.738;7.998;2023-04-03T16:55:43;4.60;80.50
1453;DHT22;720;47.738;7.998;2023-04-03T16:58:08;4.50;90.10
1453;DHT22;720;47.738;7.998;2023-04-03T17:00:35;5.30;92.90
1453;DHT22;720;47.738;7.998;2023-04-03T17:03:01;5.20;84.50
1453;DHT22;720;47.738;7.998;2023-04-03T17:05:27;5.20;83.20
1453;DHT22;720;47.738;7.998;2023-04-03T17:07:53;5.00;82.80
1453;DHT22;720;47.738;7.998;2023-04-03T17:10:19;4.90;82.10
1453;DHT22;720;47.738;7.998;2023-04-03T17:12:44;4.80;82.80
1453;DHT22;720;47.738;7.998;2023-04-03T17:15:10;4.70;82.70
1453;DHT22;720;47.738;7.998;2023-04-03T17:17:36;4.60;83.20
1453;DHT22;720;47.738;7.998;2023-04-03T17:20:03;4.50;81.30
1453;DHT22;720;47.738;7.998;2023-04-03T17:22:29;4.40;82.50
1453;DHT22;720;47.738;7.998;2023-04-03T17:24:57;4.20;82.30
1453;DHT22;720;47.738;7.998;2023-04-03T17:27:23;4.30;85.50
1453;DHT22;720;47.738;7.998;2023-04-03T17:29:50;4.40;85.90
1453;DHT22;720;47.738;7.998;2023-04-03T17:32:15;4.40;84.40
1453;DHT22;720;47.738;7.998;2023-04-03T17:34:41;4.40;83.60
1453;DHT22;720;47.738;7.998;2023-04-03T17:37:07;4.30;84.60
1453;DHT22;720;47.738;7.998;2023-04-03T17:39:32;4.10;93.70
1453;DHT22;720;47.738;7.998;2023-04-03T17:41:58;4.10;85.70
1453;DHT22;720;47.738;7.998;2023-04-03T17:44:25;4.50;85.00
1453;DHT22;720;47.738;7.998;2023-04-03T17:46:51;4.00;84.50
1453;DHT22;720;47.738;7.998;2023-04-03T17:49:17;3.90;85.60
1453;DHT22;720;47.738;7.998;2023-04-03T17:51:44;3.90;86.00
1453;DHT22;720;47.738;7.998;2023-04-03T17:54:10;3.90;85.60
1453;DHT22;720;47.738;7.998;2023-04-03T17:56:36;4.10;85.00
1453;DHT22;720;47.738;7.998;2023-04-03T17:59:02;3.80;84.90
1453;DHT22;720;47.738;7.998;2023-04-03T18:01:30;3.70;84.40
1453;DHT22;720;47.738;7.998;2023-04-03T18:03:59;3.80;84.50
1453;DHT22;720;47.738;7.998;2023-04-03T18:06:31;3.80;84.30
1453;DHT22;720;47.738;7.998;2023-04-03T18:09:03;4.00;83.50
1453;DHT22;720;47.738;7.998;2023-04-03T18:11:30;4.70;85.40